Time;durP1;ratioP1;P1;durP2;ratioP2;P2;SDS_P1;SDS_P2;PMS_P1;PMS_P2;Temp;Humidity;BMP_temperature;BMP_pressure;BME280_temperature;BME280_humidity;BME280_pressure;Samples;Min_cycle;Max_cycle;Signal;HPM_P1;HPM_P2
2023/02/09 00:01:33;;;;;;;28.25;14.35;;;;;;;1.92;100.00;101860.94;4965219;28;20031;-93
2023/02/09 00:04:01;;;;;;;21.20;13.82;;;;;;;2.01;100.00;101862.69;4972863;28;20062;-93
2023/02/09 00:06:28;;;;;;;22.80;13.80;;;;;;;1.99;100.00;101849.09;4969497;28;20081;-93
2023/02/09 00:08:55;;;;;;;20.25;13.18;;;;;;;1.85;100.00;101835.50;4957975;28;20031;-93
2023/02/09 00:13:21;;;;;;;26.83;13.70;;;;;;;1.94;100.00;101860.97;4970431;28;20543;-93
2023/02/09 00:14:13;;;;;;;28.38;13.52;;;;;;;1.90;100.00;101849.06;4957325;28;20405;-92
2023/02/09 00:16:39;;;;;;;22.23;13.07;;;;;;;1.98;100.00;101866.94;4970505;28;20066;-93
2023/02/09 00:19:05;;;;;;;25.67;12.93;;;;;;;1.97;100.00;101860.97;4961067;28;20071;-92
2023/02/09 00:21:31;;;;;;;19.25;12.63;;;;;;;1.97;100.00;101850.78;4958969;28;20158;-92
2023/02/09 00:23:57;;;;;;;21.98;13.35;;;;;;;1.91;100.00;101881.34;4966001;28;20497;-92
2023/02/09 00:26:23;;;;;;;23.08;12.80;;;;;;;1.71;100.00;101869.44;4968761;28;20022;-92
2023/02/09 00:28:49;;;;;;;23.90;13.57;;;;;;;1.74;100.00;101872.81;4961604;28;20042;-92
2023/02/09 00:31:14;;;;;;;19.80;12.57;;;;;;;1.63;100.00;101878.72;4968162;28;20117;-92
2023/02/09 00:33:40;;;;;;;29.98;12.25;;;;;;;1.60;100.00;101886.34;4958966;28;20031;-94
2023/02/09 00:36:07;;;;;;;24.13;12.07;;;;;;;1.61;100.00;101882.97;4957716;28;20035;-93
2023/02/09 00:38:34;;;;;;;20.60;11.73;;;;;;;1.38;100.00;101870.16;4969716;28;20023;-92
2023/02/09 00:40:59;;;;;;;19.63;11.02;;;;;;;1.47;100.00;101859.19;4982172;28;20540;-92
2023/02/09 00:43:25;;;;;;;19.83;11.35;;;;;;;1.43;100.00;101865.09;4955835;28;20114;-92
2023/02/09 00:45:50;;;;;;;21.92;11.35;;;;;;;1.36;100.00;101848.13;4968867;28;20034;-93
2023/02/09 00:48:16;;;;;;;18.63;11.23;;;;;;;1.52;100.00;101862.59;4968801;28;20489;-93
2023/02/09 00:50:41;;;;;;;18.58;11.07;;;;;;;1.37;100.00;101821.84;4954063;28;20023;-92
2023/02/09 00:53:07;;;;;;;22.95;10.93;;;;;;;1.56;100.00;101864.31;4961366;28;20109;-92
2023/02/09 00:55:32;;;;;;;18.05;11.50;;;;;;;1.44;100.00;101843.88;4958695;28;20489;-93
2023/02/09 00:57:58;;;;;;;19.20;10.25;;;;;;;1.41;100.00;101867.63;4961976;28;20031;-92
2023/02/09 01:00:23;;;;;;;23.40;10.85;;;;;;;1.21;100.00;101852.28;4982517;28;20114;-92
2023/02/09 01:02:49;;;;;;;17.52;11.27;;;;;;;1.11;100.00;101845.47;4958606;28;20022;-92
2023/02/09 01:05:14;;;;;;;17.75;11.07;;;;;;;1.08;100.00;101847.19;4968725;28;20072;-92
2023/02/09 01:07:40;;;;;;;26.95;12.52;;;;;;;1.11;100.00;101832.75;4956138;28;20027;-92
2023/02/09 01:10:06;;;;;;;21.27;12.80;;;;;;;1.23;100.00;101850.63;4969721;28;20520;-92
2023/02/09 01:12:31;;;;;;;27.63;13.68;;;;;;;1.19;100.00;101848.88;4971577;28;20500;-92
2023/02/09 01:14:57;;;;;;;22.98;13.68;;;;;;;1.15;100.00;101839.56;4957892;28;20034;-92
2023/02/09 01:17:22;;;;;;;26.08;13.82;;;;;;;1.03;100.00;101826.81;4959351;28;20047;-91
2023/02/09 01:19:52;;;;;;;20.20;12.63;;;;;;;0.99;100.00;101841.19;4960279;28;20038;-92
2023/02/09 01:22:18;;;;;;;17.50;11.70;;;;;;;0.91;100.00;101824.22;4965102;28;20388;-92
2023/02/09 01:24:43;;;;;;;30.77;13.88;;;;;;;0.93;100.00;101836.09;4955125;28;20023;-92
2023/02/09 01:27:09;;;;;;;18.75;12.75;;;;;;;1.01;100.00;101836.13;4965371;28;20482;-92
2023/02/09 01:29:34;;;;;;;23.98;12.93;;;;;;;0.93;100.00;101825.91;4959986;28;20061;-92
2023/02/09 01:31:59;;;;;;;24.45;12.70;;;;;;;0.87;100.00;101827.56;4954810;28;20038;-94
2023/02/09 01:34:25;;;;;;;25.48;12.85;;;;;;;0.83;100.00;101819.94;4956623;28;20027;-92
2023/02/09 01:36:50;;;;;;;20.75;12.95;;;;;;;0.97;100.00;101816.59;4955370;28;20034;-91
2023/02/09 01:39:16;;;;;;;20.98;12.85;;;;;;;0.99;100.00;101832.72;4984332;28;20031;-92
2023/02/09 01:41:42;;;;;;;23.02;13.32;;;;;;;1.04;100.00;101838.66;4955507;28;20027;-92
2023/02/09 01:44:11;;;;;;;25.98;12.52;;;;;;;1.22;100.00;101848.94;4964213;28;20146;-91
2023/02/09 01:46:37;;;;;;;25.17;13.30;;;;;;;1.27;100.00;101852.34;4958578;28;20027;-92
2023/02/09 01:49:19;;;;;;;24.88;12.13;;;;;;;1.24;100.00;101857.41;4966388;28;20606;-91
2023/02/09 01:51:52;;;;;;;23.37;12.27;;;;;;;1.30;100.00;101855.75;4957989;28;20082;-91
2023/02/09 01:54:23;;;;;;;24.63;12.68;;;;;;;1.37;100.00;101867.63;4962882;28;20027;-91
2023/02/09 01:56:53;;;;;;;26.58;12.57;;;;;;;1.33;100.00;101863.38;4958093;28;20038;-91
2023/02/09 01:59:20;;;;;;;23.63;12.45;;;;;;;1.36;100.00;101860.84;4958301;28;20030;-91
2023/02/09 02:01:45;;;;;;;23.10;11.95;;;;;;;1.47;100.00;101870.19;4980543;28;20075;-94
2023/02/09 02:04:11;;;;;;;28.60;12.18;;;;;;;1.57;100.00;101876.16;4972184;28;20070;-92
2023/02/09 02:06:37;;;;;;;24.50;12.52;;;;;;;1.65;100.00;101866.00;4967209;28;20101;-91
2023/02/09 02:09:11;;;;;;;24.38;12.65;;;;;;;1.58;100.00;101870.22;4959856;28;20046;-95
2023/02/09 02:11:38;;;;;;;21.98;11.48;;;;;;;1.59;100.00;101879.56;4965444;28;20023;-93
2023/02/09 02:14:04;;;;;;;23.20;11.20;;;;;;;1.36;100.00;101850.66;4957274;28;20398;-91
2023/02/09 02:17:18;;;;;;;19.63;10.77;;;;;;;1.60;100.00;101878.72;4954980;28;20034;-94
2023/02/09 02:20:12;;;;;;;21.23;11.30;;;;;;;1.54;100.00;101888.91;4967110;28;20118;-93
2023/02/09 02:22:43;;;;;;;17.77;10.77;;;;;;;1.46;100.00;101882.91;4957544;28;20035;-94
2023/02/09 02:25:25;;;;;;;19.13;10.68;;;;;;;1.36;100.00;101876.94;4955482;28;20031;-92
2023/02/09 02:27:53;;;;;;;;;;;;;;;1.30;100.00;101878.63;4955523;28;20029;-93
2023/02/09 02:30:47;;;;;;;25.08;10.98;;;;;;;1.26;100.00;101886.22;4957442;28;19925;-94
2023/02/09 02:33:40;;;;;;;16.00;10.10;;;;;;;1.22;100.00;101876.03;4956918;28;20027;-93
2023/02/09 02:36:15;;;;;;;28.48;12.73;;;;;;;1.41;100.00;101884.59;4967537;28;20034;-92
2023/02/09 02:38:51;;;;;;;20.00;12.23;;;;;;;1.48;100.00;101891.41;4958529;28;20469;-93
2023/02/09 02:44:33;;;;;;;22.50;12.32;;;;;;;1.46;100.00;101873.59;4972354;28;20034;-92
2023/02/09 02:47:02;;;;;;;21.00;11.43;;;;;;;1.45;100.00;101866.81;4971340;28;20129;-92
2023/02/09 02:49:39;;;;;;;17.20;10.77;;;;;;;1.37;100.00;101862.56;4964829;28;20424;-93
2023/02/09 02:52:08;;;;;;;19.48;11.48;;;;;;;1.34;100.00;101871.03;4977811;28;20024;-93
2023/02/09 02:54:38;;;;;;;25.65;11.82;;;;;;;1.32;100.00;101854.03;4963970;28;20039;-92
2023/02/09 02:57:15;;;;;;;19.83;11.07;;;;;;;1.40;100.00;101865.09;4970819;28;20497;-92
2023/02/09 02:59:47;;;;;;;22.27;11.88;;;;;;;1.43;100.00;101870.19;4961519;28;20031;-94
2023/02/09 03:02:18;;;;;;;24.05;10.80;;;;;;;1.45;100.00;101856.63;4959707;28;20023;-92
2023/02/09 03:04:48;;;;;;;25.17;12.07;;;;;;;1.59;100.00;101854.13;4963336;28;20027;-92
2023/02/09 03:07:16;;;;;;;18.55;10.65;;;;;;;1.66;100.00;101858.38;4967704;28;20034;-93
2023/02/09 03:09:53;;;;;;;25.55;12.18;;;;;;;1.81;100.00;101874.53;4961287;28;20027;-92
2023/02/09 03:12:40;;;;;;;20.50;11.88;;;;;;;1.91;100.00;101868.59;4973084;28;20026;-93
2023/02/09 03:15:17;;;;;;;24.10;14.75;;;;;;;2.03;100.00;101871.16;4971408;28;20023;-92
2023/02/09 03:17:52;;;;;;;20.42;13.18;;;;;;;2.08;100.00;101866.94;4955531;28;20148;-93
2023/02/09 03:20:25;;;;;;;26.98;13.95;;;;;;;2.14;100.00;101861.81;4971766;28;20474;-93
2023/02/09 03:22:57;;;;;;;21.92;13.45;;;;;;;2.27;100.00;101854.22;4957510;28;20503;-93
2023/02/09 03:25:44;;;;;;;22.90;11.75;;;;;;;2.24;100.00;101869.47;4956850;28;20035;-92
2023/02/09 03:28:23;;;;;;;25.85;13.48;;;;;;;2.26;100.00;101848.25;4957129;28;20505;-93
2023/02/09 03:30:50;;;;;;;27.23;14.63;;;;;;;2.44;100.00;101862.69;4956681;28;20042;-94
2023/02/09 03:33:21;;;;;;;26.58;13.95;;;;;;;2.66;100.00;101865.19;4958063;28;20408;-94
2023/02/09 03:35:50;;;;;;;21.20;12.77;;;;;;;2.61;100.00;101854.16;4970706;28;20034;-93
2023/02/09 03:38:16;;;;;;;21.75;12.25;;;;;;;2.70;100.00;101869.44;4972314;28;20603;-94
2023/02/09 03:40:42;;;;;;;18.90;11.48;;;;;;;2.63;100.00;101857.53;4969753;28;20023;-94
2023/02/09 03:43:10;;;;;;;19.85;10.98;;;;;;;2.71;100.00;101850.75;4968407;28;20372;-93
2023/02/09 03:45:35;;;;;;;17.25;10.38;;;;;;;2.69;100.00;101849.91;4965787;28;20031;-94
2023/02/09 03:48:01;;;;;;;22.17;11.75;;;;;;;2.68;100.00;101850.75;4957265;28;20034;-93
2023/02/09 03:50:28;;;;;;;27.35;13.00;;;;;;;2.72;100.00;101847.34;4965021;28;20035;-93
2023/02/09 03:52:54;;;;;;;20.27;11.93;;;;;;;2.81;100.00;101836.28;4959187;28;20030;-93
2023/02/09 03:55:19;;;;;;;21.80;12.18;;;;;;;2.82;100.00;101833.72;4962843;28;20031;-93
2023/02/09 03:57:45;;;;;;;18.50;11.82;;;;;;;2.95;100.00;101855.78;4957075;28;20500;-92
2023/02/09 04:00:11;;;;;;;19.17;12.35;;;;;;;2.95;100.00;101855.78;4975867;28;20571;-92
2023/02/09 04:02:36;;;;;;;21.25;11.80;;;;;;;2.91;100.00;101837.94;4965438;28;20446;-93
2023/02/09 04:05:02;;;;;;;23.35;10.95;;;;;;;2.78;100.00;101819.28;4955745;28;20055;-93
2023/02/09 04:07:27;;;;;;;19.98;11.80;;;;;;;3.05;100.00;101855.72;4959535;28;20031;-93
2023/02/09 04:09:53;;;;;;;30.90;12.90;;;;;;;3.03;100.00;101852.38;4970293;28;20031;-93
2023/02/09 04:12:18;;;;;;;25.58;12.18;;;;;;;3.18;100.00;101865.06;4965613;28;20042;-92
2023/02/09 04:14:44;;;;;;;19.80;11.68;;;;;;;3.17;100.00;101846.34;4961703;28;20425;-92
2023/02/09 04:17:09;;;;;;;24.50;11.85;;;;;;;3.20;100.00;101837.84;4982191;28;20038;-92
2023/02/09 04:19:35;;;;;;;18.75;11.02;;;;;;;3.25;100.00;101848.03;4960989;28;20438;-94
2023/02/09 04:22:00;;;;;;;19.40;11.23;;;;;;;3.39;100.00;101866.66;4955865;28;20027;-93
2023/02/09 04:24:27;;;;;;;21.83;11.02;;;;;;;3.41;100.00;101870.03;4968893;28;20023;-93
2023/02/09 04:26:52;;;;;;;19.25;10.40;;;;;;;3.54;100.00;101876.81;4957022;28;20023;-93
2023/02/09 04:29:17;;;;;;;17.83;10.75;;;;;;;3.52;100.00;101867.47;4969923;28;20049;-93
2023/02/09 04:31:43;;;;;;;22.17;10.20;;;;;;;3.54;100.00;101860.66;4956334;28;20027;-93
2023/02/09 04:34:08;;;;;;;16.95;10.50;;;;;;;3.55;100.00;101870.00;4973529;28;20038;-93
2023/02/09 04:36:34;;;;;;;19.73;10.57;;;;;;;3.53;100.00;101864.03;4956076;28;20193;-93
2023/02/09 04:38:59;;;;;;;15.88;10.35;;;;;;;3.45;100.00;101851.31;4969024;28;20039;-93
2023/02/09 04:41:25;;;;;;;19.58;10.23;;;;;;;3.57;100.00;101868.28;4968507;28;20031;-93
2023/02/09 04:43:50;;;;;;;19.05;10.43;;;;;;;3.51;100.00;101869.16;4959980;28;20125;-93
2023/02/09 04:46:17;;;;;;;24.67;8.93;;;;;;;3.59;100.00;101871.69;4963847;28;20038;-93
2023/02/09 04:48:43;;;;;;;15.20;8.20;;;;;;;3.76;100.00;101882.63;4960443;28;20114;-93
2023/02/09 04:51:08;;;;;;;23.67;9.05;;;;;;;3.85;100.00;101884.28;4963231;28;20163;-94
2023/02/09 04:53:34;;;;;;;25.73;10.30;;;;;;;3.83;100.00;101884.31;4961290;28;20027;-92
2023/02/09 04:56:00;;;;;;;16.60;10.90;;;;;;;3.73;100.00;101876.69;4968170;28;20530;-94
2023/02/09 05:01:16;;;;;;;15.90;9.15;;;;;;;3.91;100.00;101896.19;4970204;28;20389;-93
2023/02/09 05:03:41;;;;;;;;;;;;;;;3.91;100.00;101893.63;4960586;28;20434;-93
2023/02/09 05:06:07;;;;;;;19.33;10.05;;;;;;;3.87;100.00;101890.22;4985166;28;20009;-93
2023/02/09 05:08:32;;;;;;;19.80;8.25;;;;;;;3.91;100.00;101896.19;4959850;28;20030;-92
2023/02/09 05:10:58;;;;;;;19.80;8.02;;;;;;;4.03;100.00;101903.75;4968508;28;20069;-92
2023/02/09 05:13:25;;;;;;;17.42;6.85;;;;;;;4.13;100.00;101897.72;4959354;28;20050;-93
2023/02/09 05:15:51;;;;;;;19.67;8.77;;;;;;;4.05;100.00;101884.16;4957348;28;20038;-93
2023/02/09 05:18:16;;;;;;;16.10;9.10;;;;;;;4.12;100.00;101893.47;4961693;28;20541;-93
2023/02/09 05:20:43;;;;;;;20.45;9.13;;;;;;;4.08;100.00;101890.09;4967459;28;20106;-93
2023/02/09 05:23:09;;;;;;;28.42;8.90;;;;;;;4.13;100.00;101887.50;4960311;28;20030;-92
2023/02/09 05:25:35;;;;;;;20.88;8.98;;;;;;;4.12;100.00;101900.28;4981754;28;20035;-94
2023/02/09 05:28:01;;;;;;;17.17;8.45;;;;;;;4.05;100.00;101899.50;4962649;28;20031;-93
2023/02/09 05:30:27;;;;;;;15.48;7.95;;;;;;;4.10;100.00;101899.44;4965919;28;20042;-93
2023/02/09 05:32:53;;;;;;;24.08;8.48;;;;;;;4.24;100.00;101924.06;4965677;28;20389;-93
2023/02/09 05:35:19;;;;;;;21.08;8.07;;;;;;;4.18;100.00;101916.41;4954129;28;20130;-92
2023/02/09 05:37:44;;;;;;;17.52;7.05;;;;;;;4.19;100.00;101913.00;4966131;28;20118;-93
2023/02/09 05:40:10;;;;;;;13.18;6.40;;;;;;;4.32;100.00;101930.78;4957415;28;20062;-93
2023/02/09 05:42:36;;;;;;;16.65;6.40;;;;;;;4.32;100.00;101918.00;4964168;28;20031;-93
2023/02/09 05:45:01;;;;;;;12.55;6.18;;;;;;;4.33;100.00;101927.38;4954971;28;20038;-94
2023/02/09 05:47:27;;;;;;;11.70;6.97;;;;;;;4.41;100.00;101933.28;4958480;28;20409;-94
2023/02/09 05:49:52;;;;;;;13.52;6.75;;;;;;;4.36;100.00;101932.47;4961391;28;20030;-92
2023/02/09 05:52:18;;;;;;;20.08;7.30;;;;;;;4.45;100.00;101947.75;4959706;28;20094;-93
2023/02/09 05:54:47;;;;;;;28.52;6.82;;;;;;;4.50;100.00;101958.78;4957058;28;20035;-92
2023/02/09 05:57:12;;;;;;;20.58;6.82;;;;;;;4.55;100.00;101961.31;4955140;28;20098;-93
2023/02/09 05:59:38;;;;;;;15.15;5.60;;;;;;;4.59;100.00;101966.38;4971083;28;20026;-92
2023/02/09 06:02:03;;;;;;;24.77;5.97;;;;;;;4.65;100.00;101962.91;4965123;28;20034;-93
2023/02/09 06:04:29;;;;;;;27.10;6.60;;;;;;;4.79;100.00;101960.25;4964496;28;20098;-93
2023/02/09 06:06:55;;;;;;;19.10;6.82;;;;;;;4.76;100.00;101958.56;4956213;28;20482;-93
2023/02/09 06:09:21;;;;;;;17.80;6.75;;;;;;;4.76;100.00;101970.53;4964207;28;20362;-92
2023/02/09 06:11:46;;;;;;;19.45;6.25;;;;;;;4.78;100.00;101973.88;4987242;28;20038;-93
2023/02/09 06:14:12;;;;;;;20.48;6.95;;;;;;;4.65;100.00;101958.66;4969064;28;20023;-92
2023/02/09 06:16:39;;;;;;;19.73;6.97;;;;;;;4.78;100.00;101977.31;4963165;28;20070;-93
2023/02/09 06:19:05;;;;;;;12.48;5.65;;;;;;;4.57;100.00;101937.41;4965490;28;20137;-93
2023/02/09 06:21:31;;;;;;;22.48;6.38;;;;;;;4.75;100.00;101967.09;4971181;28;20032;-93
2023/02/09 06:23:57;;;;;;;12.48;5.80;;;;;;;4.80;100.00;101965.34;4971290;28;20081;-93
2023/02/09 06:26:22;;;;;;;17.40;5.90;;;;;;;4.67;100.00;101956.94;4970101;28;20015;-92
2023/02/09 06:28:48;;;;;;;23.90;5.97;;;;;;;4.85;100.00;101981.53;4959116;28;20031;-92
2023/02/09 06:31:13;;;;;;;11.73;5.25;;;;;;;4.87;100.00;101991.72;4960771;28;20106;-93
2023/02/09 06:33:40;;;;;;;26.20;5.47;;;;;;;4.85;100.00;101978.97;4973963;28;20022;-92
2023/02/09 06:36:06;;;;;;;15.45;5.30;;;;;;;4.86;100.00;101980.66;4960039;28;20031;-93
2023/02/09 06:38:33;;;;;;;19.85;5.60;;;;;;;4.88;100.00;101991.72;4970663;28;20018;-93
2023/02/09 06:40:59;;;;;;;23.13;6.28;;;;;;;4.91;100.00;101990.84;4964159;28;20604;-93
2023/02/09 06:43:25;;;;;;;25.70;6.20;;;;;;;5.00;100.00;101995.88;4964124;28;20106;-93
2023/02/09 06:45:51;;;;;;;24.42;6.60;;;;;;;5.00;100.00;102003.56;4969737;28;20174;-92
2023/02/09 06:48:16;;;;;;;21.98;5.03;;;;;;;4.98;100.00;101997.59;4966906;28;20027;-92
2023/02/09 06:50:42;;;;;;;23.63;5.57;;;;;;;4.96;100.00;101996.75;4969048;28;20051;-91
2023/02/09 06:53:07;;;;;;;22.20;5.88;;;;;;;4.97;100.00;101995.88;4961565;28;20540;-91
2023/02/09 06:55:33;;;;;;;15.40;5.38;;;;;;;4.94;100.00;101993.38;4972601;28;20031;-91
2023/02/09 06:57:59;;;;;;;23.30;5.97;;;;;;;5.05;100.00;102012.03;4986969;28;20031;-92
2023/02/09 07:00:25;;;;;;;15.20;4.82;;;;;;;5.08;100.00;102012.00;4966637;28;20109;-91
2023/02/09 07:02:51;;;;;;;17.42;5.43;;;;;;;5.10;100.00;102015.41;4958085;28;20106;-92
2023/02/09 07:05:17;;;;;;;17.40;5.75;;;;;;;5.05;100.00;102009.47;4972051;28;20019;-92
2023/02/09 07:07:44;;;;;;;16.67;5.53;;;;;;;5.14;100.00;102017.06;4961110;28;20042;-91
2023/02/09 07:10:11;;;;;;;19.58;5.00;;;;;;;5.00;100.00;101990.75;4960128;28;20031;-91
2023/02/09 07:12:37;;;;;;;16.40;4.88;;;;;;;5.06;100.00;102010.31;4967628;28;20070;-91
2023/02/09 07:15:03;;;;;;;18.02;4.93;;;;;;;5.11;100.00;102011.13;4964893;28;20512;-91
2023/02/09 07:17:29;;;;;;;10.82;4.80;;;;;;;5.14;100.00;102019.63;4962944;28;20544;-91
2023/02/09 07:19:55;;;;;;;16.55;5.85;;;;;;;5.19;100.00;102026.41;4961900;28;20023;-92
2023/02/09 07:22:21;;;;;;;21.52;5.45;;;;;;;5.11;100.00;102011.97;4968543;28;20023;-91
2023/02/09 07:24:47;;;;;;;21.70;4.72;;;;;;;5.15;100.00;102028.16;4960650;28;20022;-91
2023/02/09 07:27:13;;;;;;;12.50;5.13;;;;;;;5.11;100.00;102019.63;4960813;28;20339;-92
2023/02/09 07:29:39;;;;;;;20.25;5.07;;;;;;;5.12;100.00;102026.47;4974463;28;20476;-91
2023/02/09 07:32:06;;;;;;;20.35;5.05;;;;;;;5.21;100.00;102038.31;4956552;28;20130;-91
2023/02/09 07:34:32;;;;;;;13.70;4.38;;;;;;;5.22;100.00;102036.59;4967609;28;20114;-91
2023/02/09 07:36:57;;;;;;;17.15;5.32;;;;;;;5.13;100.00;102028.16;4962123;28;20159;-91
2023/02/09 07:39:23;;;;;;;18.90;6.03;;;;;;;5.17;100.00;102035.81;4977856;28;20485;-91
2023/02/09 07:41:48;;;;;;;21.63;7.25;;;;;;;5.11;100.00;102035.00;4964636;28;20075;-91
2023/02/09 07:44:14;;;;;;;21.02;5.68;;;;;;;5.12;100.00;102034.16;4965748;28;20023;-92
2023/02/09 07:46:39;;;;;;;22.17;5.28;;;;;;;5.21;100.00;102046.00;4956707;28;20027;-91
2023/02/09 07:49:05;;;;;;;23.67;5.95;;;;;;;5.20;100.00;102034.06;4973434;28;20038;-91
2023/02/09 07:51:30;;;;;;;47.42;9.10;;;;;;;5.34;100.00;102054.41;4982029;28;20050;-91
2023/02/09 07:53:57;;;;;;;22.25;5.53;;;;;;;5.38;100.00;102068.88;4984574;28;20041;-91
2023/02/09 07:56:23;;;;;;;29.05;6.90;;;;;;;5.28;100.00;102047.66;4960181;28;20033;-91
2023/02/09 07:58:49;;;;;;;43.58;7.95;;;;;;;5.42;100.00;102070.56;4973244;28;20059;-91
2023/02/09 08:01:17;;;;;;;37.22;9.00;;;;;;;5.46;100.00;102071.38;4969346;28;20031;-91
2023/02/09 08:03:45;;;;;;;40.83;9.05;;;;;;;5.57;100.00;102064.44;4957423;28;20074;-91
2023/02/09 08:06:43;;;;;;;37.58;7.43;;;;;;;5.62;100.00;102069.50;4966652;28;20034;-92
2023/02/09 08:09:15;;;;;;;31.15;7.50;;;;;;;5.68;100.00;102079.69;4965246;28;20038;-92
2023/02/09 08:11:56;;;;;;;42.15;8.82;;;;;;;5.68;100.00;102082.25;4965906;28;20029;-91
2023/02/09 08:14:49;;;;;;;30.55;8.52;;;;;;;5.60;100.00;102066.97;4960945;28;20046;-91
2023/02/09 08:17:19;;;;;;;33.75;8.90;;;;;;;5.68;100.00;102077.13;4955281;28;20106;-91
2023/02/09 08:19:50;;;;;;;25.00;10.23;;;;;;;5.73;100.00;102093.28;4967941;28;20022;-92
2023/02/09 08:22:16;;;;;;;31.20;8.20;;;;;;;5.75;100.00;102092.41;4958083;28;20033;-91
2023/02/09 08:24:42;;;;;;;37.80;8.65;;;;;;;5.83;100.00;102104.28;4959708;28;20035;-91
2023/02/09 08:27:07;;;;;;;46.33;9.32;;;;;;;5.94;100.00;102090.53;4959765;28;20377;-91
2023/02/09 08:29:33;;;;;;;31.85;8.80;;;;;;;6.12;100.00;102107.41;4962604;28;20027;-91
2023/02/09 08:31:58;;;;;;;24.83;8.75;;;;;;;6.28;100.00;102112.34;4963578;28;20473;-91
2023/02/09 08:34:24;;;;;;;31.35;8.90;;;;;;;6.31;100.00;102100.31;4967962;28;20055;-92
2023/02/09 08:36:51;;;;;;;23.00;8.40;;;;;;;6.36;100.00;102108.78;4987740;28;20057;-91
2023/02/09 08:39:17;;;;;;;45.28;10.48;;;;;;;6.38;100.00;102106.22;4978414;28;20034;-91
2023/02/09 08:41:42;;;;;;;41.13;11.52;;;;;;;6.50;100.00;102121.44;4965426;28;20397;-91
2023/02/09 08:44:08;;;;;;;32.58;10.55;;;;;;;6.53;100.00;102123.13;4957666;28;20078;-91
2023/02/09 08:46:34;;;;;;;52.75;19.02;;;;;;;6.48;100.00;102115.47;4963180;28;20470;-92
2023/02/09 08:48:59;;;;;;;46.13;12.77;;;;;;;6.57;100.00;102122.22;4985910;28;20030;-92
2023/02/09 08:51:25;;;;;;;45.88;10.23;;;;;;;6.61;100.00;102131.59;4969309;28;20495;-91
2023/02/09 08:53:51;;;;;;;43.25;10.73;;;;;;;6.70;100.00;102139.13;4967684;28;20037;-91
2023/02/09 08:56:21;;;;;;;31.58;8.05;;;;;;;6.81;100.00;102121.88;4961885;28;20064;-92
2023/02/09 08:58:47;;;;;;;28.48;8.35;;;;;;;7.23;100.00;102147.75;4963198;28;20614;-91
2023/02/09 09:01:13;;;;;;;33.50;10.70;;;;;;;7.27;100.00;102133.16;4972389;28;20029;-91
2023/02/09 09:03:40;;;;;;;37.75;8.93;;;;;;;7.57;100.00;102142.03;4975265;28;20018;-92
2023/02/09 09:06:08;;;;;;;38.80;9.43;;;;;;;7.80;100.00;102140.78;4978687;28;20035;-92
2023/02/09 09:08:35;;;;;;;38.17;11.23;;;;;;;8.25;100.00;102133.91;4969422;28;20144;-92
2023/02/09 09:11:01;;;;;;;35.03;10.30;;;;;;;8.61;100.00;102136.63;4965205;28;20057;-93
2023/02/09 09:13:27;;;;;;;41.85;12.48;;;;;;;8.48;100.00;102140.31;4958490;28;20038;-93
2023/02/09 09:15:54;;;;;;;52.03;10.48;;;;;;;8.43;100.00;102142.16;4959856;28;20035;-91
2023/02/09 09:18:20;;;;;;;35.20;10.43;;;;;;;8.47;100.00;102144.63;4962130;28;20037;-92
2023/02/09 09:20:47;;;;;;;35.90;10.35;;;;;;;8.35;100.00;102144.84;4966567;28;20101;-92
2023/02/09 09:23:13;;;;;;;33.95;10.45;;;;;;;8.43;100.00;102153.28;4964830;28;20038;-92
2023/02/09 09:25:39;;;;;;;44.55;10.00;;;;;;;8.20;100.00;102145.16;4971571;28;20022;-92
2023/02/09 09:28:05;;;;;;;37.28;8.88;;;;;;;8.31;100.00;102156.06;4973861;28;20027;-92
2023/02/09 09:30:31;;;;;;;40.10;9.75;;;;;;;8.03;100.00;102143.78;4966026;28;20035;-92
2023/02/09 09:32:57;;;;;;;37.80;9.68;;;;;;;7.93;100.00;102150.81;4976975;28;20035;-92
2023/02/09 09:35:22;;;;;;;27.98;10.15;;;;;;;7.89;100.00;102156.03;4991032;28;20054;-92
2023/02/09 09:37:48;;;;;;;35.35;9.65;;;;;;;7.56;100.00;102144.63;4971789;28;20037;-92
2023/02/09 09:40:20;;;;;;;33.17;9.48;;;;;;;7.56;100.00;102158.34;4969487;28;20122;-92
2023/02/09 09:42:56;;;;;;;28.45;11.75;;;;;;;7.52;100.00;102155.84;4987242;28;20034;-92
2023/02/09 09:45:25;;;;;;;36.03;10.95;;;;;;;7.48;100.00;102170.47;4978566;28;20027;-91
2023/02/09 09:47:51;;;;;;;30.02;9.80;;;;;;;7.38;100.00;102180.03;4975627;28;20058;-92
2023/02/09 09:50:20;;;;;;;29.05;10.82;;;;;;;7.31;100.00;102169.88;4972028;28;20109;-92
2023/02/09 09:52:51;;;;;;;34.95;11.57;;;;;;;7.32;100.00;102176.75;4972389;28;20518;-92
2023/02/09 09:55:26;;;;;;;29.98;12.02;;;;;;;7.54;100.00;102198.63;4981958;28;20029;-92
2023/02/09 09:57:54;;;;;;;32.72;11.93;;;;;;;7.78;100.00;102179.38;4989263;28;20105;-91
2023/02/09 10:00:35;;;;;;;27.92;11.45;;;;;;;8.28;100.00;102190.44;4990271;28;20492;-91
2023/02/09 10:03:01;;;;;;;28.48;10.60;;;;;;;8.31;100.00;102185.22;4986019;28;20066;-92
2023/02/09 10:05:29;;;;;;;32.47;11.18;;;;;;;8.63;100.00;102206.06;4957943;28;20073;-93
2023/02/09 10:08:17;;;;;;;28.83;9.48;;;;;;;8.42;100.00;102204.78;4979739;28;20097;-92
2023/02/09 10:10:55;;;;;;;26.73;10.15;;;;;;;8.21;100.00;102199.13;4970467;28;20125;-92
2023/02/09 10:13:25;;;;;;;22.73;8.30;;;;;;;8.42;99.64;102184.19;4989133;28;20093;-92
2023/02/09 10:15:56;;;;;;;20.13;7.75;;;;;;;10.14;90.76;102198.97;4963488;28;20046;-93
2023/02/09 10:18:24;;;;;;;18.05;7.35;;;;;;;11.76;79.29;102200.06;4971450;28;20492;-92
2023/02/09 10:21:10;;;;;;;24.30;7.93;;;;;;;14.29;67.03;102205.72;4985065;28;20037;-92
2023/02/09 10:23:59;;;;;;;13.52;6.03;;;;;;;15.16;60.21;102213.81;4984662;28;20309;-93
2023/02/09 10:26:32;;;;;;;16.05;5.18;;;;;;;16.74;53.67;102211.81;4965735;28;20030;-92
2023/02/09 10:29:07;;;;;;;9.88;5.10;;;;;;;17.42;49.82;102222.75;4972165;28;20019;-93
2023/02/09 10:32:03;;;;;;;11.48;4.15;;;;;;;19.81;44.82;102213.94;4969166;28;20385;-93
2023/02/09 10:34:42;;;;;;;13.30;3.70;;;;;;;19.44;43.77;102211.16;4970872;28;20035;-93
2023/02/09 10:37:37;;;;;;;16.00;3.63;;;;;;;19.72;43.99;102215.38;4988853;28;20037;-93
2023/02/09 10:40:16;;;;;;;15.50;3.72;;;;;;;20.90;39.94;102235.97;4990707;28;20065;-93
2023/02/09 10:42:58;;;;;;;6.93;2.08;;;;;;;23.35;36.89;102212.56;4968281;28;20386;-93
2023/02/09 10:45:36;;;;;;;6.25;1.67;;;;;;;24.93;33.30;102241.09;4968857;28;20128;-94
2023/02/09 10:48:17;;;;;;;8.15;2.10;;;;;;;26.48;31.42;102228.44;4972283;28;20110;-93
2023/02/09 10:51:06;;;;;;;9.27;1.95;;;;;;;22.45;36.41;102262.88;4969237;28;20027;-93
2023/02/09 10:53:55;;;;;;;9.20;1.75;;;;;;;19.28;41.69;102271.53;4970771;28;20019;-93
2023/02/09 10:56:33;;;;;;;7.47;2.13;;;;;;;17.50;44.42;102264.91;4975653;28;20065;-93
2023/02/09 10:59:13;;;;;;;5.30;1.95;;;;;;;18.57;44.08;102262.06;4976407;28;20057;-93
2023/02/09 11:01:41;;;;;;;11.82;2.15;;;;;;;21.33;37.88;102232.78;4975280;28;20118;-93
2023/02/09 11:04:35;;;;;;;5.43;1.70;;;;;;;24.42;33.46;102251.84;4973113;28;20027;-93
2023/02/09 11:07:07;;;;;;;8.98;1.92;;;;;;;26.21;30.55;102248.69;4973664;28;20417;-93
2023/02/09 11:09:38;;;;;;;5.30;1.88;;;;;;;26.60;29.84;102247.66;4970768;28;20099;-94
2023/02/09 11:12:08;;;;;;;5.80;1.70;;;;;;;27.57;28.08;102257.47;4988580;28;20030;-93
2023/02/09 11:14:34;;;;;;;6.68;2.30;;;;;;;26.39;29.27;102256.66;4989130;28;20018;-94
2023/02/09 11:17:35;;;;;;;4.80;1.40;;;;;;;23.59;32.96;102258.91;4978056;28;20484;-93
2023/02/09 11:20:12;;;;;;;6.88;2.10;;;;;;;22.26;35.79;102262.63;4976069;28;20489;-94
2023/02/09 11:22:46;;;;;;;7.30;2.03;;;;;;;19.50;40.14;102255.25;4975199;28;20085;-93
2023/02/09 11:25:31;;;;;;;6.13;1.92;;;;;;;18.04;42.33;102261.78;4989338;28;20022;-94
2023/02/09 11:28:13;;;;;;;18.15;8.25;;;;;;;16.65;45.35;102257.47;4991194;28;20073;-93
2023/02/09 11:30:57;;;;;;;8.38;4.40;;;;;;;15.44;48.68;102258.47;4975780;28;20567;-93